sensor_id;sensor_type;location;lat;lon;timestamp;pressure;altitude;pressure_sealevel;temperature;humidity
31595;BME280;18200;48.726;8.892;2023-03-26T00:01:58;96285.38;;;20.91;36.11
31595;BME280;18200;48.726;8.892;2023-03-26T00:10:07;96287.63;;;20.80;36.96
31595;BME280;18200;48.726;8.892;2023-03-26T00:14:09;96287.59;;;20.39;37.31
31595;BME280;18200;48.726;8.892;2023-03-26T00:18:12;96292.28;;;20.67;37.06
31595;BME280;18200;48.726;8.892;2023-03-26T00:22:13;96290.06;;;20.62;36.62
31595;BME280;18200;48.726;8.892;2023-03-26T00:26:16;96294.97;;;20.54;36.57
31595;BME280;18200;48.726;8.892;2023-03-26T00:30:16;96287.56;;;20.96;36.17
31595;BME280;18200;48.726;8.892;2023-03-26T00:34:17;96290.84;;;20.91;35.93
31595;BME280;18200;48.726;8.892;2023-03-26T00:38:17;96281.84;;;20.78;36.31
31595;BME280;18200;48.726;8.892;2023-03-26T00:42:18;96284.91;;;20.80;36.08
31595;BME280;18200;48.726;8.892;2023-03-26T00:46:19;96279.69;;;20.98;36.11
31595;BME280;18200;48.726;8.892;2023-03-26T00:50:20;96272.78;;;20.94;35.66
31595;BME280;18200;48.726;8.892;2023-03-26T00:54:20;96263.31;;;20.98;35.36
31595;BME280;18200;48.726;8.892;2023-03-26T00:58:20;96266.13;;;20.82;35.62
31595;BME280;18200;48.726;8.892;2023-03-26T01:02:21;96256.53;;;20.90;35.87
31595;BME280;18200;48.726;8.892;2023-03-26T01:06:25;96253.41;;;20.63;36.61
31595;BME280;18200;48.726;8.892;2023-03-26T01:10:26;96237.56;;;21.24;35.97
31595;BME280;18200;48.726;8.892;2023-03-26T01:14:27;96220.50;;;20.95;36.02
31595;BME280;18200;48.726;8.892;2023-03-26T01:18:31;96220.50;;;20.95;35.66
31595;BME280;18200;48.726;8.892;2023-03-26T01:22:34;96207.56;;;20.83;35.88
31595;BME280;18200;48.726;8.892;2023-03-26T01:30:40;96210.22;;;20.99;35.63
31595;BME280;18200;48.726;8.892;2023-03-26T01:39:15;96190.66;;;21.01;35.68
31595;BME280;18200;48.726;8.892;2023-03-26T01:43:30;96179.28;;;20.77;35.39
31595;BME280;18200;48.726;8.892;2023-03-26T01:47:33;96174.91;;;20.92;35.97
31595;BME280;18200;48.726;8.892;2023-03-26T01:51:34;96168.56;;;21.45;34.98
31595;BME280;18200;48.726;8.892;2023-03-26T01:55:51;96156.91;;;21.32;35.31
31595;BME280;18200;48.726;8.892;2023-03-26T02:00:47;96147.25;;;21.40;35.20
31595;BME280;18200;48.726;8.892;2023-03-26T02:04:45;96133.53;;;20.81;35.80
31595;BME280;18200;48.726;8.892;2023-03-26T02:08:56;96126.38;;;21.34;35.43
31595;BME280;18200;48.726;8.892;2023-03-26T02:12:58;96112.44;;;21.19;35.43
31595;BME280;18200;48.726;8.892;2023-03-26T02:16:59;96101.75;;;20.62;36.32
31595;BME280;18200;48.726;8.892;2023-03-26T02:20:59;96107.84;;;20.66;36.25
31595;BME280;18200;48.726;8.892;2023-03-26T02:25:01;96114.69;;;20.33;37.07
31595;BME280;18200;48.726;8.892;2023-03-26T02:29:02;96101.19;;;20.67;36.27
31595;BME280;18200;48.726;8.892;2023-03-26T02:33:03;96102.38;;;20.66;35.99
31595;BME280;18200;48.726;8.892;2023-03-26T02:37:11;96093.97;;;20.23;36.49
31595;BME280;18200;48.726;8.892;2023-03-26T02:41:15;96090.41;;;20.76;35.65
31595;BME280;18200;48.726;8.892;2023-03-26T02:45:29;96092.13;;;20.57;36.35
31595;BME280;18200;48.726;8.892;2023-03-26T02:49:38;96079.03;;;20.77;35.51
31595;BME280;18200;48.726;8.892;2023-03-26T02:53:39;96068.00;;;20.81;35.67
31595;BME280;18200;48.726;8.892;2023-03-26T02:58:03;96058.78;;;21.00;35.69
31595;BME280;18200;48.726;8.892;2023-03-26T03:02:08;96048.72;;;21.22;35.14
31595;BME280;18200;48.726;8.892;2023-03-26T03:06:11;96038.06;;;21.37;35.12
31595;BME280;18200;48.726;8.892;2023-03-26T03:10:19;96038.94;;;20.87;35.86
31595;BME280;18200;48.726;8.892;2023-03-26T03:14:53;96030.53;;;20.81;36.35
31595;BME280;18200;48.726;8.892;2023-03-26T03:18:53;96019.75;;;20.78;36.15
31595;BME280;18200;48.726;8.892;2023-03-26T03:22:57;96000.47;;;20.94;35.91
31595;BME280;18200;48.726;8.892;2023-03-26T03:26:58;95998.28;;;21.02;35.99
31595;BME280;18200;48.726;8.892;2023-03-26T03:31:11;95994.63;;;20.70;35.93
31595;BME280;18200;48.726;8.892;2023-03-26T03:35:11;96001.44;;;19.74;37.98
31595;BME280;18200;48.726;8.892;2023-03-26T03:39:14;95999.31;;;20.20;37.32
31595;BME280;18200;48.726;8.892;2023-03-26T03:43:15;95992.72;;;20.21;38.13
31595;BME280;18200;48.726;8.892;2023-03-26T03:47:26;95998.81;;;20.50;37.72
31595;BME280;18200;48.726;8.892;2023-03-26T03:51:27;95985.16;;;20.12;38.29
31595;BME280;18200;48.726;8.892;2023-03-26T03:55:31;95983.59;;;19.86;38.04
31595;BME280;18200;48.726;8.892;2023-03-26T03:59:31;95974.13;;;18.76;40.39
31595;BME280;18200;48.726;8.892;2023-03-26T04:03:32;95969.88;;;19.48;39.07
31595;BME280;18200;48.726;8.892;2023-03-26T04:07:40;95968.81;;;19.01;40.12
31595;BME280;18200;48.726;8.892;2023-03-26T04:11:40;95952.50;;;20.08;37.95
31595;BME280;18200;48.726;8.892;2023-03-26T04:16:07;95954.28;;;20.28;38.19
31595;BME280;18200;48.726;8.892;2023-03-26T04:20:10;95936.31;;;19.51;38.82
31595;BME280;18200;48.726;8.892;2023-03-26T04:24:14;95920.56;;;20.09;37.91
31595;BME280;18200;48.726;8.892;2023-03-26T04:28:47;95929.72;;;20.02;37.80
31595;BME280;18200;48.726;8.892;2023-03-26T04:33:01;95909.13;;;20.27;37.55
31595;BME280;18200;48.726;8.892;2023-03-26T04:37:18;95912.59;;;19.89;38.53
31595;BME280;18200;48.726;8.892;2023-03-26T04:41:32;95907.69;;;19.72;39.17
31595;BME280;18200;48.726;8.892;2023-03-26T04:45:39;95886.19;;;20.37;37.70
31595;BME280;18200;48.726;8.892;2023-03-26T04:49:39;95883.47;;;20.11;37.95
31595;BME280;18200;48.726;8.892;2023-03-26T04:53:41;95876.50;;;20.36;37.77
31595;BME280;18200;48.726;8.892;2023-03-26T04:57:58;95882.84;;;19.95;37.89
31595;BME280;18200;48.726;8.892;2023-03-26T05:02:23;95875.50;;;20.30;37.90
31595;BME280;18200;48.726;8.892;2023-03-26T05:06:28;95854.66;;;20.36;37.62
31595;BME280;18200;48.726;8.892;2023-03-26T05:10:30;95852.50;;;20.65;36.82
31595;BME280;18200;48.726;8.892;2023-03-26T05:14:37;95853.75;;;20.73;36.46
31595;BME280;18200;48.726;8.892;2023-03-26T05:18:41;95838.41;;;20.20;37.13
31595;BME280;18200;48.726;8.892;2023-03-26T05:22:43;95823.38;;;20.02;37.89
31595;BME280;18200;48.726;8.892;2023-03-26T05:26:50;95826.28;;;19.61;38.99
31595;BME280;18200;48.726;8.892;2023-03-26T05:30:55;95809.19;;;20.20;37.50
31595;BME280;18200;48.726;8.892;2023-03-26T05:34:58;95810.78;;;19.58;38.40
31595;BME280;18200;48.726;8.892;2023-03-26T05:38:58;95799.75;;;20.34;37.03
31595;BME280;18200;48.726;8.892;2023-03-26T05:43:28;95795.59;;;20.85;36.39
31595;BME280;18200;48.726;8.892;2023-03-26T05:47:46;95773.41;;;20.74;36.29
31595;BME280;18200;48.726;8.892;2023-03-26T05:51:48;95761.47;;;20.59;37.00
31595;BME280;18200;48.726;8.892;2023-03-26T05:56:08;95759.91;;;21.01;36.29
31595;BME280;18200;48.726;8.892;2023-03-26T06:00:27;95756.34;;;21.13;35.29
31595;BME280;18200;48.726;8.892;2023-03-26T06:04:31;95749.72;;;21.23;34.57
31595;BME280;18200;48.726;8.892;2023-03-26T06:08:54;95740.69;;;20.83;35.12
31595;BME280;18200;48.726;8.892;2023-03-26T06:12:54;95738.88;;;20.80;35.56
31595;BME280;18200;48.726;8.892;2023-03-26T06:16:55;95739.41;;;20.97;35.11
31595;BME280;18200;48.726;8.892;2023-03-26T06:20:55;95733.47;;;21.20;34.92
31595;BME280;18200;48.726;8.892;2023-03-26T06:25:10;95725.47;;;20.73;35.96
31595;BME280;18200;48.726;8.892;2023-03-26T06:29:21;95719.22;;;20.94;35.38
31595;BME280;18200;48.726;8.892;2023-03-26T06:33:39;95715.06;;;21.11;35.56
31595;BME280;18200;48.726;8.892;2023-03-26T06:37:39;95706.00;;;21.23;35.10
31595;BME280;18200;48.726;8.892;2023-03-26T06:41:41;95701.75;;;20.92;35.29
31595;BME280;18200;48.726;8.892;2023-03-26T06:45:50;95702.97;;;21.21;35.85
31595;BME280;18200;48.726;8.892;2023-03-26T06:50:09;95683.03;;;21.51;35.17
31595;BME280;18200;48.726;8.892;2023-03-26T06:54:25;95675.66;;;21.21;34.83
31595;BME280;18200;48.726;8.892;2023-03-26T06:58:43;95659.75;;;20.98;35.93
31595;BME280;18200;48.726;8.892;2023-03-26T07:03:10;95643.78;;;20.87;35.89
31595;BME280;18200;48.726;8.892;2023-03-26T07:07:29;95664.69;;;20.81;36.51
31595;BME280;18200;48.726;8.892;2023-03-26T07:11:48;95657.22;;;20.73;35.68
31595;BME280;18200;48.726;8.892;2023-03-26T07:16:07;95636.84;;;21.35;35.61
31595;BME280;18200;48.726;8.892;2023-03-26T07:20:47;95621.50;;;21.47;35.91
31595;BME280;18200;48.726;8.892;2023-03-26T07:24:48;95605.91;;;21.66;35.87
31595;BME280;18200;48.726;8.892;2023-03-26T07:29:34;95613.94;;;20.93;36.49
31595;BME280;18200;48.726;8.892;2023-03-26T07:33:46;95615.16;;;21.50;36.51
31595;BME280;18200;48.726;8.892;2023-03-26T07:43:15;95607.28;;;19.89;39.10
31595;BME280;18200;48.726;8.892;2023-03-26T07:47:40;95602.69;;;21.49;37.10
31595;BME280;18200;48.726;8.892;2023-03-26T07:51:58;95587.97;;;21.46;36.32
31595;BME280;18200;48.726;8.892;2023-03-26T08:00:55;95572.47;;;21.71;36.39
31595;BME280;18200;48.726;8.892;2023-03-26T08:14:23;95551.97;;;21.30;38.06
31595;BME280;18200;48.726;8.892;2023-03-26T08:18:38;95551.06;;;21.51;37.23
31595;BME280;18200;48.726;8.892;2023-03-26T08:22:41;95533.56;;;22.12;36.96
31595;BME280;18200;48.726;8.892;2023-03-26T08:26:49;95538.63;;;21.68;37.32
31595;BME280;18200;48.726;8.892;2023-03-26T08:30:51;95536.00;;;22.19;36.94
31595;BME280;18200;48.726;8.892;2023-03-26T08:34:54;95538.44;;;22.08;36.91
31595;BME280;18200;48.726;8.892;2023-03-26T08:38:56;95529.94;;;22.06;36.85
31595;BME280;18200;48.726;8.892;2023-03-26T09:05:19;95531.78;;;21.82;37.93
31595;BME280;18200;48.726;8.892;2023-03-26T09:31:52;95522.09;;;23.68;36.30
31595;BME280;18200;48.726;8.892;2023-03-26T09:36:28;95524.19;;;23.35;35.92
31595;BME280;18200;48.726;8.892;2023-03-26T09:40:56;95514.38;;;24.25;34.16
31595;BME280;18200;48.726;8.892;2023-03-26T10:06:35;95547.88;;;21.34;36.49
31595;BME280;18200;48.726;8.892;2023-03-26T10:24:03;95507.91;;;23.31;32.55
31595;BME280;18200;48.726;8.892;2023-03-26T10:40:50;95538.53;;;20.38;33.22
31595;BME280;18200;48.726;8.892;2023-03-26T10:57:55;95529.25;;;22.38;30.14
31595;BME280;18200;48.726;8.892;2023-03-26T11:19:31;95491.88;;;22.91;30.04
31595;BME280;18200;48.726;8.892;2023-03-26T11:23:40;95496.31;;;24.82;29.07
31595;BME280;18200;48.726;8.892;2023-03-26T11:27:57;95497.53;;;23.11;29.55
31595;BME280;18200;48.726;8.892;2023-03-26T11:36:07;95505.34;;;21.79;29.87
31595;BME280;18200;48.726;8.892;2023-03-26T11:40:22;95501.66;;;22.09;29.34
31595;BME280;18200;48.726;8.892;2023-03-26T11:44:29;95489.25;;;23.59;27.57
31595;BME280;18200;48.726;8.892;2023-03-26T11:48:39;95480.50;;;23.07;28.72
31595;BME280;18200;48.726;8.892;2023-03-26T11:52:41;95493.56;;;23.89;27.50
31595;BME280;18200;48.726;8.892;2023-03-26T11:56:57;95490.75;;;23.22;27.16
31595;BME280;18200;48.726;8.892;2023-03-26T12:01:12;95523.47;;;23.25;27.88
31595;BME280;18200;48.726;8.892;2023-03-26T12:05:20;95521.97;;;22.26;26.91
31595;BME280;18200;48.726;8.892;2023-03-26T12:09:22;95488.28;;;23.24;26.58
31595;BME280;18200;48.726;8.892;2023-03-26T12:17:36;95475.53;;;23.44;26.55
31595;BME280;18200;48.726;8.892;2023-03-26T12:21:44;95498.44;;;23.70;26.27
31595;BME280;18200;48.726;8.892;2023-03-26T12:26:03;95487.44;;;23.41;25.96
31595;BME280;18200;48.726;8.892;2023-03-26T12:34:22;95479.84;;;24.18;25.87
31595;BME280;18200;48.726;8.892;2023-03-26T12:38:32;95468.38;;;23.47;26.02
31595;BME280;18200;48.726;8.892;2023-03-26T12:42:39;95466.28;;;22.94;26.29
31595;BME280;18200;48.726;8.892;2023-03-26T12:46:44;95463.72;;;22.67;27.29
31595;BME280;18200;48.726;8.892;2023-03-26T12:51:02;95458.38;;;24.51;25.17
31595;BME280;18200;48.726;8.892;2023-03-26T12:59:28;95451.25;;;24.25;26.12
31595;BME280;18200;48.726;8.892;2023-03-26T13:03:56;95442.38;;;25.05;24.54
31595;BME280;18200;48.726;8.892;2023-03-26T13:08:19;95445.69;;;23.75;26.81
31595;BME280;18200;48.726;8.892;2023-03-26T13:12:46;95425.38;;;23.29;25.44
31595;BME280;18200;48.726;8.892;2023-03-26T13:16:53;95433.09;;;23.40;25.00
31595;BME280;18200;48.726;8.892;2023-03-26T13:34:08;95433.34;;;23.03;23.90
31595;BME280;18200;48.726;8.892;2023-03-26T13:38:15;95420.50;;;23.62;23.16
31595;BME280;18200;48.726;8.892;2023-03-26T13:46:50;95425.94;;;23.19;24.55
31595;BME280;18200;48.726;8.892;2023-03-26T13:50:59;95423.19;;;22.15;25.82
31595;BME280;18200;48.726;8.892;2023-03-26T13:55:32;95427.09;;;21.99;26.85
31595;BME280;18200;48.726;8.892;2023-03-26T13:59:39;95469.78;;;20.79;29.17
31595;BME280;18200;48.726;8.892;2023-03-26T14:08:20;95518.47;;;19.58;34.75
31595;BME280;18200;48.726;8.892;2023-03-26T14:12:41;95524.69;;;18.77;38.98
31595;BME280;18200;48.726;8.892;2023-03-26T14:16:53;95515.81;;;19.11;38.20
31595;BME280;18200;48.726;8.892;2023-03-26T14:25:41;95482.06;;;22.43;33.73
31595;BME280;18200;48.726;8.892;2023-03-26T14:29:53;95475.16;;;23.28;33.71
31595;BME280;18200;48.726;8.892;2023-03-26T14:55:58;95491.47;;;20.25;37.67
31595;BME280;18200;48.726;8.892;2023-03-26T15:14:01;95533.94;;;19.26;38.72
31595;BME280;18200;48.726;8.892;2023-03-26T15:27:22;95517.88;;;18.47;39.58
31595;BME280;18200;48.726;8.892;2023-03-26T15:36:11;95500.97;;;17.90;40.13
31595;BME280;18200;48.726;8.892;2023-03-26T15:49:29;95489.00;;;21.24;34.56
31595;BME280;18200;48.726;8.892;2023-03-26T15:53:42;95478.91;;;20.94;36.27
31595;BME280;18200;48.726;8.892;2023-03-26T15:58:14;95469.97;;;19.74;36.25
31595;BME280;18200;48.726;8.892;2023-03-26T16:02:39;95481.66;;;19.75;37.32
31595;BME280;18200;48.726;8.892;2023-03-26T16:11:52;95466.84;;;19.76;37.15
31595;BME280;18200;48.726;8.892;2023-03-26T16:20:23;95467.13;;;20.08;36.18
31595;BME280;18200;48.726;8.892;2023-03-26T16:24:37;95492.97;;;18.96;37.93
31595;BME280;18200;48.726;8.892;2023-03-26T16:32:53;95514.00;;;20.16;36.48
31595;BME280;18200;48.726;8.892;2023-03-26T16:36:57;95531.16;;;19.73;36.13
31595;BME280;18200;48.726;8.892;2023-03-26T16:41:04;95530.09;;;21.66;33.33
31595;BME280;18200;48.726;8.892;2023-03-26T16:50:06;95531.03;;;20.69;34.61
31595;BME280;18200;48.726;8.892;2023-03-26T16:54:22;95543.22;;;22.40;32.23
31595;BME280;18200;48.726;8.892;2023-03-26T17:07:02;95553.78;;;21.24;34.74
31595;BME280;18200;48.726;8.892;2023-03-26T17:11:27;95549.28;;;20.81;35.79
31595;BME280;18200;48.726;8.892;2023-03-26T17:20:50;95549.38;;;18.83;38.30
31595;BME280;18200;48.726;8.892;2023-03-26T17:37:40;95525.59;;;20.07;36.50
31595;BME280;18200;48.726;8.892;2023-03-26T17:50:26;95533.06;;;20.96;33.81
31595;BME280;18200;48.726;8.892;2023-03-26T17:54:39;95536.09;;;20.98;34.32
31595;BME280;18200;48.726;8.892;2023-03-26T17:58:46;95543.22;;;20.86;33.71
31595;BME280;18200;48.726;8.892;2023-03-26T18:02:53;95551.75;;;20.97;33.80
31595;BME280;18200;48.726;8.892;2023-03-26T18:20:17;95561.22;;;21.32;33.27
31595;BME280;18200;48.726;8.892;2023-03-26T18:24:31;95553.78;;;21.24;33.04
31595;BME280;18200;48.726;8.892;2023-03-26T18:28:34;95561.53;;;21.34;32.71
31595;BME280;18200;48.726;8.892;2023-03-26T18:32:49;95566.41;;;21.76;33.03
31595;BME280;18200;48.726;8.892;2023-03-26T18:37:08;95581.44;;;21.35;33.88
31595;BME280;18200;48.726;8.892;2023-03-26T18:41:30;95554.91;;;20.96;34.86
31595;BME280;18200;48.726;8.892;2023-03-26T18:45:36;95566.06;;;19.87;36.66
31595;BME280;18200;48.726;8.892;2023-03-26T18:49:37;95572.13;;;18.26;39.36
31595;BME280;18200;48.726;8.892;2023-03-26T18:53:44;95573.25;;;18.66;38.38
31595;BME280;18200;48.726;8.892;2023-03-26T18:57:49;95571.59;;;18.94;38.39
31595;BME280;18200;48.726;8.892;2023-03-26T19:01:49;95571.63;;;16.52;42.69
31595;BME280;18200;48.726;8.892;2023-03-26T19:05:52;95572.50;;;17.58;40.69
31595;BME280;18200;48.726;8.892;2023-03-26T19:09:53;95570.00;;;17.92;40.95
31595;BME280;18200;48.726;8.892;2023-03-26T19:14:04;95589.91;;;16.12;43.17
31595;BME280;18200;48.726;8.892;2023-03-26T19:18:07;95577.84;;;16.68;42.09
31595;BME280;18200;48.726;8.892;2023-03-26T19:22:13;95563.75;;;15.66;43.16
31595;BME280;18200;48.726;8.892;2023-03-26T19:26:14;95541.56;;;18.34;38.60
31595;BME280;18200;48.726;8.892;2023-03-26T19:30:34;95548.53;;;18.86;36.84
31595;BME280;18200;48.726;8.892;2023-03-26T19:34:39;95560.94;;;19.46;35.92
31595;BME280;18200;48.726;8.892;2023-03-26T19:39:09;95554.44;;;18.72;36.61
31595;BME280;18200;48.726;8.892;2023-03-26T19:43:11;95554.19;;;19.25;35.74
31595;BME280;18200;48.726;8.892;2023-03-26T19:47:22;95538.50;;;18.83;36.63
31595;BME280;18200;48.726;8.892;2023-03-26T19:55:32;95534.88;;;19.88;34.45
31595;BME280;18200;48.726;8.892;2023-03-26T19:59:32;95519.78;;;20.58;33.67
31595;BME280;18200;48.726;8.892;2023-03-26T20:03:38;95519.53;;;20.83;33.37
31595;BME280;18200;48.726;8.892;2023-03-26T20:07:39;95520.03;;;20.42;33.75
31595;BME280;18200;48.726;8.892;2023-03-26T20:11:40;95510.75;;;20.08;34.05
31595;BME280;18200;48.726;8.892;2023-03-26T20:15:42;95521.50;;;20.34;33.88
31595;BME280;18200;48.726;8.892;2023-03-26T20:19:45;95532.94;;;20.20;33.54
31595;BME280;18200;48.726;8.892;2023-03-26T20:23:46;95527.13;;;20.08;34.01
31595;BME280;18200;48.726;8.892;2023-03-26T20:27:47;95527.13;;;20.08;33.93
31595;BME280;18200;48.726;8.892;2023-03-26T20:31:47;95529.59;;;19.63;34.44
31595;BME280;18200;48.726;8.892;2023-03-26T20:35:48;95528.66;;;19.45;34.92
31595;BME280;18200;48.726;8.892;2023-03-26T20:39:48;95524.88;;;19.85;33.99
31595;BME280;18200;48.726;8.892;2023-03-26T20:43:49;95523.09;;;19.91;34.58
31595;BME280;18200;48.726;8.892;2023-03-26T20:47:51;95526.22;;;20.11;34.33
31595;BME280;18200;48.726;8.892;2023-03-26T20:51:53;95523.38;;;20.46;33.08
31595;BME280;18200;48.726;8.892;2023-03-26T20:55:53;95523.59;;;20.60;33.63
31595;BME280;18200;48.726;8.892;2023-03-26T20:59:53;95512.75;;;20.39;33.23
31595;BME280;18200;48.726;8.892;2023-03-26T21:03:54;95522.81;;;19.98;33.66
31595;BME280;18200;48.726;8.892;2023-03-26T21:07:58;95517.06;;;19.75;34.40
31595;BME280;18200;48.726;8.892;2023-03-26T21:12:06;95529.56;;;19.85;34.47
31595;BME280;18200;48.726;8.892;2023-03-26T21:16:09;95522.28;;;20.34;33.39
31595;BME280;18200;48.726;8.892;2023-03-26T21:20:10;95526.44;;;20.48;34.12
31595;BME280;18200;48.726;8.892;2023-03-26T21:32:46;95514.94;;;20.62;34.27
31595;BME280;18200;48.726;8.892;2023-03-26T21:36:47;95507.97;;;20.61;33.98
31595;BME280;18200;48.726;8.892;2023-03-26T21:40:53;95510.75;;;20.30;34.41
31595;BME280;18200;48.726;8.892;2023-03-26T21:44:54;95515.56;;;20.57;34.56
31595;BME280;18200;48.726;8.892;2023-03-26T21:48:55;95515.97;;;20.55;34.51
31595;BME280;18200;48.726;8.892;2023-03-26T21:52:56;95518.91;;;20.61;34.71
31595;BME280;18200;48.726;8.892;2023-03-26T21:57:08;95518.69;;;20.46;34.78
31595;BME280;18200;48.726;8.892;2023-03-26T22:05:42;95533.38;;;19.44;37.21
31595;BME280;18200;48.726;8.892;2023-03-26T22:09:46;95538.53;;;20.16;36.33
31595;BME280;18200;48.726;8.892;2023-03-26T22:13:46;95548.94;;;20.08;36.60
31595;BME280;18200;48.726;8.892;2023-03-26T22:17:47;95545.25;;;18.40;40.00
31595;BME280;18200;48.726;8.892;2023-03-26T22:21:54;95543.56;;;19.96;37.08
31595;BME280;18200;48.726;8.892;2023-03-26T22:25:55;95547.25;;;18.78;38.62
31595;BME280;18200;48.726;8.892;2023-03-26T22:29:55;95550.22;;;19.73;37.43
31595;BME280;18200;48.726;8.892;2023-03-26T22:33:55;95551.50;;;19.81;37.25
31595;BME280;18200;48.726;8.892;2023-03-26T22:37:56;95560.94;;;18.62;39.43
31595;BME280;18200;48.726;8.892;2023-03-26T22:41:56;95559.50;;;18.95;38.82
31595;BME280;18200;48.726;8.892;2023-03-26T22:45:57;95561.28;;;18.64;39.70
31595;BME280;18200;48.726;8.892;2023-03-26T22:49:58;95568.91;;;19.28;38.51
31595;BME280;18200;48.726;8.892;2023-03-26T22:53:58;95571.34;;;18.25;40.72
31595;BME280;18200;48.726;8.892;2023-03-26T22:57:59;95591.75;;;17.92;41.74
31595;BME280;18200;48.726;8.892;2023-03-26T23:01:59;95588.78;;;17.58;42.70
31595;BME280;18200;48.726;8.892;2023-03-26T23:06:01;95597.09;;;17.67;42.15
31595;BME280;18200;48.726;8.892;2023-03-26T23:10:04;95601.53;;;18.02;41.55
31595;BME280;18200;48.726;8.892;2023-03-26T23:14:05;95600.56;;;18.88;39.57
31595;BME280;18200;48.726;8.892;2023-03-26T23:18:06;95607.91;;;19.25;39.39
31595;BME280;18200;48.726;8.892;2023-03-26T23:22:06;95617.66;;;18.63;39.75
31595;BME280;18200;48.726;8.892;2023-03-26T23:26:08;95623.34;;;17.41;42.80
31595;BME280;18200;48.726;8.892;2023-03-26T23:30:09;95631.16;;;17.84;41.31
31595;BME280;18200;48.726;8.892;2023-03-26T23:34:09;95641.03;;;18.07;41.68
31595;BME280;18200;48.726;8.892;2023-03-26T23:38:12;95649.75;;;17.25;43.25
31595;BME280;18200;48.726;8.892;2023-03-26T23:42:12;95658.03;;;16.85;44.58
31595;BME280;18200;48.726;8.892;2023-03-26T23:46:13;95659.72;;;16.44;45.05
31595;BME280;18200;48.726;8.892;2023-03-26T23:50:17;95667.53;;;16.77;45.10
31595;BME280;18200;48.726;8.892;2023-03-26T23:54:17;95679.63;;;15.75;46.43
31595;BME280;18200;48.726;8.892;2023-03-26T23:58:18;95685.06;;;16.89;44.58
